sensor_id;sensor_type;location;lat;lon;timestamp;P1;durP1;ratioP1;P2;durP2;ratioP2
1987;SDS011;12775;46.994;15.498;2023-05-23T00:01:38;9.70;;;8.90;;
1987;SDS011;12775;46.994;15.498;2023-05-23T00:04:06;9.10;;;8.30;;
1987;SDS011;12775;46.994;15.498;2023-05-23T00:06:33;10.98;;;8.16;;
1987;SDS011;12775;46.994;15.498;2023-05-23T00:08:59;13.88;;;9.92;;
1987;SDS011;12775;46.994;15.498;2023-05-23T00:11:27;11.34;;;10.18;;
1987;SDS011;12775;46.994;15.498;2023-05-23T00:13:54;11.08;;;10.02;;
1987;SDS011;12775;46.994;15.498;2023-05-23T00:16:20;12.04;;;10.88;;
1987;SDS011;12775;46.994;15.498;2023-05-23T00:18:47;10.90;;;9.60;;
1987;SDS011;12775;46.994;15.498;2023-05-23T00:21:14;13.02;;;11.64;;
1987;SDS011;12775;46.994;15.498;2023-05-23T00:23:41;11.78;;;10.78;;
1987;SDS011;12775;46.994;15.498;2023-05-23T00:26:10;11.94;;;10.84;;
1987;SDS011;12775;46.994;15.498;2023-05-23T00:28:36;11.46;;;9.96;;
1987;SDS011;12775;46.994;15.498;2023-05-23T00:31:03;10.04;;;9.04;;
1987;SDS011;12775;46.994;15.498;2023-05-23T00:33:29;10.46;;;9.24;;
1987;SDS011;12775;46.994;15.498;2023-05-23T00:35:57;10.66;;;9.42;;
1987;SDS011;12775;46.994;15.498;2023-05-23T00:38:23;13.00;;;8.96;;
1987;SDS011;12775;46.994;15.498;2023-05-23T00:40:50;10.80;;;9.74;;
1987;SDS011;12775;46.994;15.498;2023-05-23T00:43:17;9.66;;;8.72;;
1987;SDS011;12775;46.994;15.498;2023-05-23T00:45:44;9.48;;;8.58;;
1987;SDS011;12775;46.994;15.498;2023-05-23T00:48:11;10.82;;;9.68;;
1987;SDS011;12775;46.994;15.498;2023-05-23T00:50:38;11.02;;;10.00;;
1987;SDS011;12775;46.994;15.498;2023-05-23T00:53:04;10.92;;;9.98;;
1987;SDS011;12775;46.994;15.498;2023-05-23T00:55:31;10.80;;;9.72;;
1987;SDS011;12775;46.994;15.498;2023-05-23T00:57:58;11.08;;;10.16;;
1987;SDS011;12775;46.994;15.498;2023-05-23T01:00:26;11.00;;;10.00;;
1987;SDS011;12775;46.994;15.498;2023-05-23T01:02:53;11.04;;;9.94;;
1987;SDS011;12775;46.994;15.498;2023-05-23T01:05:20;10.50;;;9.50;;
1987;SDS011;12775;46.994;15.498;2023-05-23T01:07:48;9.92;;;9.02;;
1987;SDS011;12775;46.994;15.498;2023-05-23T01:10:15;12.68;;;11.44;;
1987;SDS011;12775;46.994;15.498;2023-05-23T01:12:50;11.70;;;10.46;;
1987;SDS011;12775;46.994;15.498;2023-05-23T01:15:26;12.38;;;11.08;;
1987;SDS011;12775;46.994;15.498;2023-05-23T01:17:58;10.88;;;9.88;;
1987;SDS011;12775;46.994;15.498;2023-05-23T01:20:29;9.58;;;8.68;;
1987;SDS011;12775;46.994;15.498;2023-05-23T01:22:59;8.88;;;7.98;;
1987;SDS011;12775;46.994;15.498;2023-05-23T01:28:14;11.18;;;10.16;;
1987;SDS011;12775;46.994;15.498;2023-05-23T01:30:39;8.48;;;7.38;;
1987;SDS011;12775;46.994;15.498;2023-05-23T01:33:05;11.12;;;10.16;;
1987;SDS011;12775;46.994;15.498;2023-05-23T01:35:33;11.06;;;10.12;;
1987;SDS011;12775;46.994;15.498;2023-05-23T01:37:59;11.06;;;9.90;;
1987;SDS011;12775;46.994;15.498;2023-05-23T01:40:26;10.58;;;9.58;;
1987;SDS011;12775;46.994;15.498;2023-05-23T01:42:53;10.52;;;9.42;;
1987;SDS011;12775;46.994;15.498;2023-05-23T01:45:19;12.58;;;10.02;;
1987;SDS011;12775;46.994;15.498;2023-05-23T01:47:46;11.24;;;9.00;;
1987;SDS011;12775;46.994;15.498;2023-05-23T01:50:12;9.48;;;8.68;;
1987;SDS011;12775;46.994;15.498;2023-05-23T01:52:39;11.02;;;9.88;;
1987;SDS011;12775;46.994;15.498;2023-05-23T01:55:05;10.36;;;9.36;;
1987;SDS011;12775;46.994;15.498;2023-05-23T01:57:32;10.64;;;9.64;;
1987;SDS011;12775;46.994;15.498;2023-05-23T02:00:00;10.02;;;9.12;;
1987;SDS011;12775;46.994;15.498;2023-05-23T02:02:27;12.14;;;8.36;;
1987;SDS011;12775;46.994;15.498;2023-05-23T02:04:54;10.04;;;9.14;;
1987;SDS011;12775;46.994;15.498;2023-05-23T02:07:22;10.64;;;9.52;;
1987;SDS011;12775;46.994;15.498;2023-05-23T02:09:49;9.70;;;8.78;;
1987;SDS011;12775;46.994;15.498;2023-05-23T02:12:15;11.30;;;9.38;;
1987;SDS011;12775;46.994;15.498;2023-05-23T02:14:43;9.54;;;8.70;;
1987;SDS011;12775;46.994;15.498;2023-05-23T02:17:09;10.40;;;9.02;;
1987;SDS011;12775;46.994;15.498;2023-05-23T02:19:36;10.38;;;9.26;;
1987;SDS011;12775;46.994;15.498;2023-05-23T02:22:03;14.84;;;9.30;;
1987;SDS011;12775;46.994;15.498;2023-05-23T02:24:30;11.08;;;9.72;;
1987;SDS011;12775;46.994;15.498;2023-05-23T02:26:57;11.18;;;10.08;;
1987;SDS011;12775;46.994;15.498;2023-05-23T02:29:24;10.72;;;9.66;;
1987;SDS011;12775;46.994;15.498;2023-05-23T02:31:51;12.40;;;9.88;;
1987;SDS011;12775;46.994;15.498;2023-05-23T02:34:17;12.04;;;10.78;;
1987;SDS011;12775;46.994;15.498;2023-05-23T02:36:44;17.14;;;11.18;;
1987;SDS011;12775;46.994;15.498;2023-05-23T02:39:10;10.98;;;8.82;;
1987;SDS011;12775;46.994;15.498;2023-05-23T02:41:37;13.82;;;11.06;;
1987;SDS011;12775;46.994;15.498;2023-05-23T02:44:04;12.34;;;10.84;;
1987;SDS011;12775;46.994;15.498;2023-05-23T02:46:31;12.44;;;11.24;;
1987;SDS011;12775;46.994;15.498;2023-05-23T02:48:58;11.10;;;10.10;;
1987;SDS011;12775;46.994;15.498;2023-05-23T02:51:25;10.02;;;9.02;;
1987;SDS011;12775;46.994;15.498;2023-05-23T02:53:52;11.38;;;10.18;;
1987;SDS011;12775;46.994;15.498;2023-05-23T02:56:19;9.16;;;8.36;;
1987;SDS011;12775;46.994;15.498;2023-05-23T02:58:45;11.14;;;9.76;;
1987;SDS011;12775;46.994;15.498;2023-05-23T03:01:12;10.16;;;9.28;;
1987;SDS011;12775;46.994;15.498;2023-05-23T03:03:39;12.76;;;10.28;;
1987;SDS011;12775;46.994;15.498;2023-05-23T03:06:05;9.80;;;8.86;;
1987;SDS011;12775;46.994;15.498;2023-05-23T03:08:32;9.32;;;8.42;;
1987;SDS011;12775;46.994;15.498;2023-05-23T03:10:59;10.34;;;8.16;;
1987;SDS011;12775;46.994;15.498;2023-05-23T03:13:27;12.34;;;9.26;;
1987;SDS011;12775;46.994;15.498;2023-05-23T03:15:53;13.42;;;9.22;;
1987;SDS011;12775;46.994;15.498;2023-05-23T03:18:19;10.36;;;8.74;;
1987;SDS011;12775;46.994;15.498;2023-05-23T03:20:47;10.80;;;8.50;;
1987;SDS011;12775;46.994;15.498;2023-05-23T03:23:13;12.40;;;8.86;;
1987;SDS011;12775;46.994;15.498;2023-05-23T03:25:40;14.06;;;10.12;;
1987;SDS011;12775;46.994;15.498;2023-05-23T03:28:07;10.74;;;9.70;;
1987;SDS011;12775;46.994;15.498;2023-05-23T03:30:34;14.16;;;9.76;;
1987;SDS011;12775;46.994;15.498;2023-05-23T03:33:01;11.04;;;9.92;;
1987;SDS011;12775;46.994;15.498;2023-05-23T03:35:28;14.62;;;10.70;;
1987;SDS011;12775;46.994;15.498;2023-05-23T03:37:55;11.84;;;10.62;;
1987;SDS011;12775;46.994;15.498;2023-05-23T03:40:22;10.02;;;8.90;;
1987;SDS011;12775;46.994;15.498;2023-05-23T03:42:53;11.04;;;10.04;;
1987;SDS011;12775;46.994;15.498;2023-05-23T03:45:15;10.00;;;8.42;;
1987;SDS011;12775;46.994;15.498;2023-05-23T03:47:42;13.46;;;8.24;;
1987;SDS011;12775;46.994;15.498;2023-05-23T03:50:09;14.12;;;10.26;;
1987;SDS011;12775;46.994;15.498;2023-05-23T03:52:36;10.76;;;9.68;;
1987;SDS011;12775;46.994;15.498;2023-05-23T03:55:03;11.88;;;10.70;;
1987;SDS011;12775;46.994;15.498;2023-05-23T03:57:29;10.48;;;9.50;;
1987;SDS011;12775;46.994;15.498;2023-05-23T03:59:57;10.36;;;9.40;;
1987;SDS011;12775;46.994;15.498;2023-05-23T04:02:24;12.58;;;9.70;;
1987;SDS011;12775;46.994;15.498;2023-05-23T04:04:51;13.62;;;10.40;;
1987;SDS011;12775;46.994;15.498;2023-05-23T04:07:19;12.08;;;10.78;;
1987;SDS011;12775;46.994;15.498;2023-05-23T04:09:46;11.16;;;10.26;;
1987;SDS011;12775;46.994;15.498;2023-05-23T04:12:12;10.02;;;9.02;;
1987;SDS011;12775;46.994;15.498;2023-05-23T04:14:39;10.02;;;9.02;;
1987;SDS011;12775;46.994;15.498;2023-05-23T04:17:06;12.04;;;10.00;;
1987;SDS011;12775;46.994;15.498;2023-05-23T04:19:33;10.14;;;9.22;;
1987;SDS011;12775;46.994;15.498;2023-05-23T04:21:59;11.42;;;9.10;;
1987;SDS011;12775;46.994;15.498;2023-05-23T04:24:26;11.04;;;10.04;;
1987;SDS011;12775;46.994;15.498;2023-05-23T04:26:53;9.84;;;8.52;;
1987;SDS011;12775;46.994;15.498;2023-05-23T04:29:19;10.20;;;9.20;;
1987;SDS011;12775;46.994;15.498;2023-05-23T04:31:46;11.62;;;9.64;;
1987;SDS011;12775;46.994;15.498;2023-05-23T04:34:13;17.32;;;10.10;;
1987;SDS011;12775;46.994;15.498;2023-05-23T04:36:40;10.84;;;9.94;;
1987;SDS011;12775;46.994;15.498;2023-05-23T04:39:08;15.68;;;10.72;;
1987;SDS011;12775;46.994;15.498;2023-05-23T04:41:35;13.36;;;11.38;;
1987;SDS011;12775;46.994;15.498;2023-05-23T04:44:02;13.48;;;10.34;;
1987;SDS011;12775;46.994;15.498;2023-05-23T04:46:28;15.80;;;11.82;;
1987;SDS011;12775;46.994;15.498;2023-05-23T04:48:56;21.88;;;12.72;;
1987;SDS011;12775;46.994;15.498;2023-05-23T04:51:23;28.80;;;13.12;;
1987;SDS011;12775;46.994;15.498;2023-05-23T04:53:50;15.40;;;11.20;;
1987;SDS011;12775;46.994;15.498;2023-05-23T04:56:19;19.34;;;11.80;;
1987;SDS011;12775;46.994;15.498;2023-05-23T04:58:46;21.74;;;12.32;;
1987;SDS011;12775;46.994;15.498;2023-05-23T05:01:13;17.40;;;12.70;;
1987;SDS011;12775;46.994;15.498;2023-05-23T05:03:41;12.52;;;11.22;;
1987;SDS011;12775;46.994;15.498;2023-05-23T05:06:08;14.40;;;12.28;;
1987;SDS011;12775;46.994;15.498;2023-05-23T05:08:35;14.44;;;11.86;;
1987;SDS011;12775;46.994;15.498;2023-05-23T05:11:03;12.20;;;10.90;;
1987;SDS011;12775;46.994;15.498;2023-05-23T05:13:30;14.66;;;11.80;;
1987;SDS011;12775;46.994;15.498;2023-05-23T05:15:58;19.98;;;11.84;;
1987;SDS011;12775;46.994;15.498;2023-05-23T05:18:25;17.32;;;12.08;;
1987;SDS011;12775;46.994;15.498;2023-05-23T05:20:53;17.22;;;12.24;;
1987;SDS011;12775;46.994;15.498;2023-05-23T05:23:23;16.60;;;12.08;;
1987;SDS011;12775;46.994;15.498;2023-05-23T05:25:47;12.26;;;11.02;;
1987;SDS011;12775;46.994;15.498;2023-05-23T05:28:14;14.08;;;12.40;;
1987;SDS011;12775;46.994;15.498;2023-05-23T05:30:41;17.78;;;10.66;;
1987;SDS011;12775;46.994;15.498;2023-05-23T05:33:09;13.64;;;11.12;;
1987;SDS011;12775;46.994;15.498;2023-05-23T05:35:37;19.12;;;11.82;;
1987;SDS011;12775;46.994;15.498;2023-05-23T05:38:04;14.16;;;11.92;;
1987;SDS011;12775;46.994;15.498;2023-05-23T05:40:31;11.48;;;10.38;;
1987;SDS011;12775;46.994;15.498;2023-05-23T05:42:58;23.42;;;11.26;;
1987;SDS011;12775;46.994;15.498;2023-05-23T05:45:25;12.88;;;10.80;;
1987;SDS011;12775;46.994;15.498;2023-05-23T05:47:51;10.22;;;9.42;;
1987;SDS011;12775;46.994;15.498;2023-05-23T05:50:19;12.44;;;11.18;;
1987;SDS011;12775;46.994;15.498;2023-05-23T05:52:45;12.04;;;10.82;;
1987;SDS011;12775;46.994;15.498;2023-05-23T05:55:13;12.58;;;11.26;;
1987;SDS011;12775;46.994;15.498;2023-05-23T05:57:40;12.64;;;10.44;;
1987;SDS011;12775;46.994;15.498;2023-05-23T06:00:12;13.38;;;10.76;;
1987;SDS011;12775;46.994;15.498;2023-05-23T06:02:38;11.68;;;10.48;;
1987;SDS011;12775;46.994;15.498;2023-05-23T06:05:06;11.88;;;10.40;;
1987;SDS011;12775;46.994;15.498;2023-05-23T06:07:33;12.76;;;11.48;;
1987;SDS011;12775;46.994;15.498;2023-05-23T06:10:00;15.78;;;12.16;;
1987;SDS011;12775;46.994;15.498;2023-05-23T06:12:27;12.76;;;11.52;;
1987;SDS011;12775;46.994;15.498;2023-05-23T06:14:55;14.70;;;11.70;;
1987;SDS011;12775;46.994;15.498;2023-05-23T06:17:22;17.18;;;12.46;;
1987;SDS011;12775;46.994;15.498;2023-05-23T06:19:50;13.18;;;11.88;;
1987;SDS011;12775;46.994;15.498;2023-05-23T06:22:16;14.10;;;12.70;;
1987;SDS011;12775;46.994;15.498;2023-05-23T06:24:43;14.28;;;12.84;;
1987;SDS011;12775;46.994;15.498;2023-05-23T06:27:10;13.40;;;11.54;;
1987;SDS011;12775;46.994;15.498;2023-05-23T06:29:38;13.50;;;12.10;;
1987;SDS011;12775;46.994;15.498;2023-05-23T06:32:05;13.64;;;12.26;;
1987;SDS011;12775;46.994;15.498;2023-05-23T06:34:32;14.40;;;12.38;;
1987;SDS011;12775;46.994;15.498;2023-05-23T06:37:00;13.48;;;12.14;;
1987;SDS011;12775;46.994;15.498;2023-05-23T06:39:27;12.18;;;10.96;;
1987;SDS011;12775;46.994;15.498;2023-05-23T06:41:55;12.40;;;11.14;;
1987;SDS011;12775;46.994;15.498;2023-05-23T06:44:22;11.70;;;10.60;;
1987;SDS011;12775;46.994;15.498;2023-05-23T06:46:49;15.06;;;11.90;;
1987;SDS011;12775;46.994;15.498;2023-05-23T06:49:17;12.76;;;11.34;;
1987;SDS011;12775;46.994;15.498;2023-05-23T06:51:44;13.04;;;11.68;;
1987;SDS011;12775;46.994;15.498;2023-05-23T06:54:12;15.98;;;11.98;;
1987;SDS011;12775;46.994;15.498;2023-05-23T06:56:39;14.80;;;11.42;;
1987;SDS011;12775;46.994;15.498;2023-05-23T06:59:06;13.56;;;11.88;;
1987;SDS011;12775;46.994;15.498;2023-05-23T07:01:34;11.18;;;10.18;;
1987;SDS011;12775;46.994;15.498;2023-05-23T07:04:01;11.42;;;10.28;;
1987;SDS011;12775;46.994;15.498;2023-05-23T07:06:28;12.26;;;11.08;;
1987;SDS011;12775;46.994;15.498;2023-05-23T07:08:56;11.60;;;10.54;;
1987;SDS011;12775;46.994;15.498;2023-05-23T07:11:23;11.18;;;10.10;;
1987;SDS011;12775;46.994;15.498;2023-05-23T07:13:50;11.44;;;10.14;;
1987;SDS011;12775;46.994;15.498;2023-05-23T07:16:18;15.04;;;10.76;;
1987;SDS011;12775;46.994;15.498;2023-05-23T07:18:45;10.42;;;9.62;;
1987;SDS011;12775;46.994;15.498;2023-05-23T07:21:13;10.96;;;9.98;;
1987;SDS011;12775;46.994;15.498;2023-05-23T07:23:40;10.00;;;8.98;;
1987;SDS011;12775;46.994;15.498;2023-05-23T07:26:07;10.28;;;9.28;;
1987;SDS011;12775;46.994;15.498;2023-05-23T07:28:36;11.68;;;10.58;;
1987;SDS011;12775;46.994;15.498;2023-05-23T07:31:03;9.70;;;8.70;;
1987;SDS011;12775;46.994;15.498;2023-05-23T07:33:30;11.72;;;10.38;;
1987;SDS011;12775;46.994;15.498;2023-05-23T07:35:58;10.06;;;9.26;;
1987;SDS011;12775;46.994;15.498;2023-05-23T07:38:26;10.52;;;8.36;;
1987;SDS011;12775;46.994;15.498;2023-05-23T07:40:53;12.92;;;9.26;;
1987;SDS011;12775;46.994;15.498;2023-05-23T07:43:23;10.56;;;9.66;;
1987;SDS011;12775;46.994;15.498;2023-05-23T07:45:50;9.84;;;8.86;;
1987;SDS011;12775;46.994;15.498;2023-05-23T07:48:17;9.80;;;9.00;;
1987;SDS011;12775;46.994;15.498;2023-05-23T07:50:45;11.00;;;9.92;;
1987;SDS011;12775;46.994;15.498;2023-05-23T07:53:12;9.94;;;9.14;;
1987;SDS011;12775;46.994;15.498;2023-05-23T07:55:40;9.68;;;8.78;;
1987;SDS011;12775;46.994;15.498;2023-05-23T07:58:07;11.58;;;10.50;;
1987;SDS011;12775;46.994;15.498;2023-05-23T08:00:34;10.00;;;9.10;;
1987;SDS011;12775;46.994;15.498;2023-05-23T08:03:02;10.82;;;9.48;;
1987;SDS011;12775;46.994;15.498;2023-05-23T08:05:29;9.98;;;9.08;;
1987;SDS011;12775;46.994;15.498;2023-05-23T08:07:56;10.98;;;9.94;;
1987;SDS011;12775;46.994;15.498;2023-05-23T08:10:24;12.00;;;9.20;;
1987;SDS011;12775;46.994;15.498;2023-05-23T08:12:53;11.10;;;9.96;;
1987;SDS011;12775;46.994;15.498;2023-05-23T08:15:19;10.76;;;7.84;;
1987;SDS011;12775;46.994;15.498;2023-05-23T08:17:47;9.74;;;8.86;;
1987;SDS011;12775;46.994;15.498;2023-05-23T08:20:14;9.42;;;8.58;;
1987;SDS011;12775;46.994;15.498;2023-05-23T08:22:42;10.02;;;9.02;;
1987;SDS011;12775;46.994;15.498;2023-05-23T08:25:09;10.66;;;8.16;;
1987;SDS011;12775;46.994;15.498;2023-05-23T08:27:36;9.36;;;8.56;;
1987;SDS011;12775;46.994;15.498;2023-05-23T08:30:04;10.08;;;9.08;;
1987;SDS011;12775;46.994;15.498;2023-05-23T08:32:32;9.02;;;8.32;;
1987;SDS011;12775;46.994;15.498;2023-05-23T08:34:59;10.40;;;9.12;;
1987;SDS011;12775;46.994;15.498;2023-05-23T08:37:27;11.10;;;8.76;;
1987;SDS011;12775;46.994;15.498;2023-05-23T08:39:54;12.62;;;9.96;;
1987;SDS011;12775;46.994;15.498;2023-05-23T08:42:22;8.98;;;8.06;;
1987;SDS011;12775;46.994;15.498;2023-05-23T08:44:49;9.10;;;8.40;;
1987;SDS011;12775;46.994;15.498;2023-05-23T08:47:16;9.38;;;8.20;;
1987;SDS011;12775;46.994;15.498;2023-05-23T08:49:44;9.52;;;8.76;;
1987;SDS011;12775;46.994;15.498;2023-05-23T08:52:11;7.94;;;7.24;;
1987;SDS011;12775;46.994;15.498;2023-05-23T08:54:38;11.18;;;7.58;;
1987;SDS011;12775;46.994;15.498;2023-05-23T08:57:06;11.68;;;8.20;;
1987;SDS011;12775;46.994;15.498;2023-05-23T08:59:33;9.32;;;8.42;;
1987;SDS011;12775;46.994;15.498;2023-05-23T09:02:01;8.88;;;8.08;;
1987;SDS011;12775;46.994;15.498;2023-05-23T09:04:29;9.66;;;8.76;;
1987;SDS011;12775;46.994;15.498;2023-05-23T09:06:56;9.88;;;8.98;;
1987;SDS011;12775;46.994;15.498;2023-05-23T09:09:22;10.78;;;7.50;;
1987;SDS011;12775;46.994;15.498;2023-05-23T09:11:50;13.48;;;8.36;;
1987;SDS011;12775;46.994;15.498;2023-05-23T09:14:17;9.86;;;9.06;;
1987;SDS011;12775;46.994;15.498;2023-05-23T09:16:46;9.20;;;8.30;;
1987;SDS011;12775;46.994;15.498;2023-05-23T09:19:13;10.88;;;9.50;;
1987;SDS011;12775;46.994;15.498;2023-05-23T09:21:41;9.96;;;9.06;;
1987;SDS011;12775;46.994;15.498;2023-05-23T09:24:09;8.60;;;7.64;;
1987;SDS011;12775;46.994;15.498;2023-05-23T09:26:36;10.54;;;8.40;;
1987;SDS011;12775;46.994;15.498;2023-05-23T09:29:05;7.98;;;7.36;;
1987;SDS011;12775;46.994;15.498;2023-05-23T09:31:31;9.48;;;7.90;;
1987;SDS011;12775;46.994;15.498;2023-05-23T09:33:58;10.12;;;8.18;;
1987;SDS011;12775;46.994;15.498;2023-05-23T09:36:26;8.68;;;7.12;;
1987;SDS011;12775;46.994;15.498;2023-05-23T09:38:53;8.24;;;6.98;;
1987;SDS011;12775;46.994;15.498;2023-05-23T09:41:20;8.48;;;7.74;;
1987;SDS011;12775;46.994;15.498;2023-05-23T09:43:49;7.26;;;6.66;;
1987;SDS011;12775;46.994;15.498;2023-05-23T09:46:16;7.62;;;6.92;;
1987;SDS011;12775;46.994;15.498;2023-05-23T09:48:47;7.44;;;6.74;;
1987;SDS011;12775;46.994;15.498;2023-05-23T09:51:14;8.12;;;7.46;;
1987;SDS011;12775;46.994;15.498;2023-05-23T09:53:41;6.72;;;6.12;;
1987;SDS011;12775;46.994;15.498;2023-05-23T09:56:09;11.90;;;8.00;;
1987;SDS011;12775;46.994;15.498;2023-05-23T09:58:36;6.54;;;5.98;;
1987;SDS011;12775;46.994;15.498;2023-05-23T10:01:03;7.60;;;6.88;;
1987;SDS011;12775;46.994;15.498;2023-05-23T10:03:34;6.36;;;5.86;;
1987;SDS011;12775;46.994;15.498;2023-05-23T10:06:05;6.56;;;6.04;;
1987;SDS011;12775;46.994;15.498;2023-05-23T10:08:38;8.08;;;7.22;;
1987;SDS011;12775;46.994;15.498;2023-05-23T10:11:56;7.04;;;6.34;;
1987;SDS011;12775;46.994;15.498;2023-05-23T10:13:59;7.92;;;7.12;;
1987;SDS011;12775;46.994;15.498;2023-05-23T10:16:36;7.64;;;6.94;;
1987;SDS011;12775;46.994;15.498;2023-05-23T10:19:06;7.52;;;6.96;;
1987;SDS011;12775;46.994;15.498;2023-05-23T10:21:34;8.26;;;7.66;;
1987;SDS011;12775;46.994;15.498;2023-05-23T10:24:00;9.56;;;8.66;;
1987;SDS011;12775;46.994;15.498;2023-05-23T10:26:27;8.66;;;7.96;;
1987;SDS011;12775;46.994;15.498;2023-05-23T10:28:54;7.94;;;7.24;;
1987;SDS011;12775;46.994;15.498;2023-05-23T10:31:22;8.20;;;7.50;;
1987;SDS011;12775;46.994;15.498;2023-05-23T10:34:00;9.42;;;7.82;;
1987;SDS011;12775;46.994;15.498;2023-05-23T10:36:21;9.04;;;8.38;;
1987;SDS011;12775;46.994;15.498;2023-05-23T10:38:54;8.96;;;8.26;;
1987;SDS011;12775;46.994;15.498;2023-05-23T10:41:22;9.18;;;8.38;;
1987;SDS011;12775;46.994;15.498;2023-05-23T10:43:56;9.06;;;7.86;;
1987;SDS011;12775;46.994;15.498;2023-05-23T10:46:48;8.16;;;7.62;;
1987;SDS011;12775;46.994;15.498;2023-05-23T10:52:09;8.66;;;8.10;;
1987;SDS011;12775;46.994;15.498;2023-05-23T10:54:43;10.62;;;8.40;;
1987;SDS011;12775;46.994;15.498;2023-05-23T10:57:11;8.22;;;7.52;;
1987;SDS011;12775;46.994;15.498;2023-05-23T10:59:38;8.70;;;8.00;;
1987;SDS011;12775;46.994;15.498;2023-05-23T11:02:09;8.10;;;7.32;;
1987;SDS011;12775;46.994;15.498;2023-05-23T11:04:34;7.66;;;7.04;;
1987;SDS011;12775;46.994;15.498;2023-05-23T11:07:00;8.88;;;7.58;;
1987;SDS011;12775;46.994;15.498;2023-05-23T11:09:28;7.20;;;6.70;;
1987;SDS011;12775;46.994;15.498;2023-05-23T11:12:00;7.52;;;6.90;;
1987;SDS011;12775;46.994;15.498;2023-05-23T11:14:34;7.68;;;6.98;;
1987;SDS011;12775;46.994;15.498;2023-05-23T11:17:18;7.06;;;6.46;;
1987;SDS011;12775;46.994;15.498;2023-05-23T11:22:25;7.58;;;6.98;;
1987;SDS011;12775;46.994;15.498;2023-05-23T11:24:50;10.06;;;7.62;;
1987;SDS011;12775;46.994;15.498;2023-05-23T11:30:09;8.16;;;7.56;;
1987;SDS011;12775;46.994;15.498;2023-05-23T11:32:40;9.48;;;8.32;;
1987;SDS011;12775;46.994;15.498;2023-05-23T11:35:09;12.10;;;8.24;;
1987;SDS011;12775;46.994;15.498;2023-05-23T11:37:37;9.12;;;8.06;;
1987;SDS011;12775;46.994;15.498;2023-05-23T11:42:42;7.86;;;7.10;;
1987;SDS011;12775;46.994;15.498;2023-05-23T11:45:11;8.66;;;7.96;;
1987;SDS011;12775;46.994;15.498;2023-05-23T11:47:39;9.60;;;8.70;;
1987;SDS011;12775;46.994;15.498;2023-05-23T11:50:06;10.16;;;9.16;;
1987;SDS011;12775;46.994;15.498;2023-05-23T11:52:33;28.32;;;14.64;;
1987;SDS011;12775;46.994;15.498;2023-05-23T11:55:02;13.72;;;8.98;;
1987;SDS011;12775;46.994;15.498;2023-05-23T11:57:29;8.92;;;7.70;;
1987;SDS011;12775;46.994;15.498;2023-05-23T11:59:56;11.66;;;9.08;;
1987;SDS011;12775;46.994;15.498;2023-05-23T12:02:24;5.90;;;5.12;;
1987;SDS011;12775;46.994;15.498;2023-05-23T12:04:50;6.74;;;6.02;;
1987;SDS011;12775;46.994;15.498;2023-05-23T12:07:18;7.52;;;5.86;;
1987;SDS011;12775;46.994;15.498;2023-05-23T12:09:45;12.80;;;9.38;;
1987;SDS011;12775;46.994;15.498;2023-05-23T12:12:12;5.84;;;5.34;;
1987;SDS011;12775;46.994;15.498;2023-05-23T12:14:40;8.26;;;6.28;;
1987;SDS011;12775;46.994;15.498;2023-05-23T12:17:06;5.14;;;4.50;;
1987;SDS011;12775;46.994;15.498;2023-05-23T12:19:34;7.02;;;4.86;;
1987;SDS011;12775;46.994;15.498;2023-05-23T12:22:04;8.38;;;6.02;;
1987;SDS011;12775;46.994;15.498;2023-05-23T12:24:31;7.80;;;6.70;;
1987;SDS011;12775;46.994;15.498;2023-05-23T12:26:59;8.12;;;7.32;;
1987;SDS011;12775;46.994;15.498;2023-05-23T12:29:30;10.80;;;9.78;;
1987;SDS011;12775;46.994;15.498;2023-05-23T12:31:57;11.08;;;9.72;;
1987;SDS011;12775;46.994;15.498;2023-05-23T12:34:24;16.70;;;9.00;;
1987;SDS011;12775;46.994;15.498;2023-05-23T12:36:55;11.98;;;7.12;;
1987;SDS011;12775;46.994;15.498;2023-05-23T12:39:24;11.02;;;8.72;;
1987;SDS011;12775;46.994;15.498;2023-05-23T12:41:51;12.46;;;10.62;;
1987;SDS011;12775;46.994;15.498;2023-05-23T12:44:17;10.38;;;8.16;;
1987;SDS011;12775;46.994;15.498;2023-05-23T12:46:44;13.16;;;9.22;;
1987;SDS011;12775;46.994;15.498;2023-05-23T12:49:11;17.70;;;9.68;;
1987;SDS011;12775;46.994;15.498;2023-05-23T12:51:37;12.20;;;9.88;;
1987;SDS011;12775;46.994;15.498;2023-05-23T12:54:04;12.70;;;9.10;;
1987;SDS011;12775;46.994;15.498;2023-05-23T12:56:31;12.46;;;8.38;;
1987;SDS011;12775;46.994;15.498;2023-05-23T12:58:58;10.68;;;7.68;;
1987;SDS011;12775;46.994;15.498;2023-05-23T13:01:26;8.22;;;7.10;;
1987;SDS011;12775;46.994;15.498;2023-05-23T13:03:53;9.42;;;8.10;;
1987;SDS011;12775;46.994;15.498;2023-05-23T13:06:20;10.70;;;8.58;;
1987;SDS011;12775;46.994;15.498;2023-05-23T13:08:46;11.08;;;6.62;;
1987;SDS011;12775;46.994;15.498;2023-05-23T13:11:13;11.52;;;8.36;;
1987;SDS011;12775;46.994;15.498;2023-05-23T13:13:40;12.48;;;7.68;;
1987;SDS011;12775;46.994;15.498;2023-05-23T13:16:07;16.18;;;7.64;;
1987;SDS011;12775;46.994;15.498;2023-05-23T13:18:34;9.66;;;8.02;;
1987;SDS011;12775;46.994;15.498;2023-05-23T13:21:00;8.10;;;7.30;;
1987;SDS011;12775;46.994;15.498;2023-05-23T13:23:28;10.18;;;8.16;;
1987;SDS011;12775;46.994;15.498;2023-05-23T13:25:54;10.56;;;8.38;;
1987;SDS011;12775;46.994;15.498;2023-05-23T13:28:21;10.08;;;7.80;;
1987;SDS011;12775;46.994;15.498;2023-05-23T13:30:49;11.40;;;8.56;;
1987;SDS011;12775;46.994;15.498;2023-05-23T13:33:16;10.50;;;7.46;;
1987;SDS011;12775;46.994;15.498;2023-05-23T13:35:43;7.62;;;6.92;;
1987;SDS011;12775;46.994;15.498;2023-05-23T13:38:10;9.28;;;7.88;;
1987;SDS011;12775;46.994;15.498;2023-05-23T13:40:37;9.32;;;7.60;;
1987;SDS011;12775;46.994;15.498;2023-05-23T13:43:03;8.54;;;7.68;;
1987;SDS011;12775;46.994;15.498;2023-05-23T13:45:30;7.38;;;6.68;;
1987;SDS011;12775;46.994;15.498;2023-05-23T13:47:57;10.36;;;9.30;;
1987;SDS011;12775;46.994;15.498;2023-05-23T13:50:24;9.46;;;8.56;;
1987;SDS011;12775;46.994;15.498;2023-05-23T13:52:51;9.30;;;8.40;;
1987;SDS011;12775;46.994;15.498;2023-05-23T13:55:17;10.02;;;7.90;;
1987;SDS011;12775;46.994;15.498;2023-05-23T13:57:44;8.66;;;7.42;;
1987;SDS011;12775;46.994;15.498;2023-05-23T14:00:11;9.80;;;8.80;;
1987;SDS011;12775;46.994;15.498;2023-05-23T14:02:38;8.50;;;7.74;;
1987;SDS011;12775;46.994;15.498;2023-05-23T14:05:06;10.56;;;9.46;;
1987;SDS011;12775;46.994;15.498;2023-05-23T14:07:33;10.26;;;8.14;;
1987;SDS011;12775;46.994;15.498;2023-05-23T14:10:00;9.82;;;8.92;;
1987;SDS011;12775;46.994;15.498;2023-05-23T14:12:27;9.62;;;8.72;;
1987;SDS011;12775;46.994;15.498;2023-05-23T14:14:54;12.90;;;9.78;;
1987;SDS011;12775;46.994;15.498;2023-05-23T14:17:21;12.84;;;10.40;;
1987;SDS011;12775;46.994;15.498;2023-05-23T14:19:47;13.30;;;10.66;;
1987;SDS011;12775;46.994;15.498;2023-05-23T14:22:14;10.88;;;9.80;;
1987;SDS011;12775;46.994;15.498;2023-05-23T14:24:41;10.48;;;9.58;;
1987;SDS011;12775;46.994;15.498;2023-05-23T14:27:08;12.94;;;10.40;;
1987;SDS011;12775;46.994;15.498;2023-05-23T14:29:34;12.08;;;10.36;;
1987;SDS011;12775;46.994;15.498;2023-05-23T14:32:01;12.00;;;10.20;;
1987;SDS011;12775;46.994;15.498;2023-05-23T14:34:28;13.48;;;10.50;;
1987;SDS011;12775;46.994;15.498;2023-05-23T14:36:55;11.30;;;8.52;;
1987;SDS011;12775;46.994;15.498;2023-05-23T14:39:22;10.78;;;9.84;;
1987;SDS011;12775;46.994;15.498;2023-05-23T14:41:49;12.66;;;9.90;;
1987;SDS011;12775;46.994;15.498;2023-05-23T14:44:17;13.02;;;10.24;;
1987;SDS011;12775;46.994;15.498;2023-05-23T14:46:43;10.48;;;8.58;;
1987;SDS011;12775;46.994;15.498;2023-05-23T14:49:10;10.44;;;9.44;;